createdAt,value
2017-03-06T00:02:43.917Z,6
2017-03-06T00:12:58.324Z,5.9
2017-03-06T00:23:12.405Z,5.9
2017-03-06T00:33:26.126Z,5.9
2017-03-06T00:43:40.812Z,6
2017-03-06T00:53:54.727Z,6
2017-03-06T01:04:08.821Z,6
2017-03-06T01:14:23.089Z,6
2017-03-06T01:24:36.524Z,6
2017-03-06T01:34:51.537Z,6
2017-03-06T01:45:06.004Z,6.1
2017-03-06T01:55:20.876Z,6.1
2017-03-06T02:05:35.892Z,6.1
2017-03-06T02:15:50.411Z,6.1
2017-03-06T02:26:03.660Z,5.8
2017-03-06T02:36:18.547Z,5.6
2017-03-06T02:46:32.820Z,5.5
2017-03-06T02:56:47.773Z,5.7
2017-03-06T03:07:02.200Z,5.7
2017-03-06T03:17:17.258Z,5.7
2017-03-06T03:27:31.735Z,5.8
2017-03-06T03:37:45.981Z,5.8
2017-03-06T03:48:00.549Z,5.6
2017-03-06T03:58:14.062Z,5.9
2017-03-06T04:08:27.693Z,5.9
2017-03-06T04:18:42.586Z,6
2017-03-06T04:28:55.794Z,6
2017-03-06T04:39:10.051Z,6
2017-03-06T04:49:24.720Z,6
2017-03-06T04:59:39.648Z,5.9
2017-03-06T05:09:53.557Z,6
2017-03-06T05:20:06.827Z,5.9
2017-03-06T05:30:21.232Z,5.8
2017-03-06T05:40:35.203Z,5.9
2017-03-06T05:50:49.467Z,5.7
2017-03-06T06:01:03.691Z,5.6
2017-03-06T06:11:18.364Z,5.6
2017-03-06T06:21:31.488Z,5.5
2017-03-06T06:31:45.706Z,5.5
2017-03-06T06:41:59.471Z,5.4
2017-03-06T06:52:14.234Z,5.3
2017-03-06T07:02:28.712Z,5.4
2017-03-06T07:12:42.879Z,5.2
2017-03-06T07:22:57.828Z,5.3
2017-03-06T07:33:12.060Z,5.3
2017-03-06T07:43:26.196Z,5.4
2017-03-06T07:53:39.245Z,5.6
2017-03-06T08:03:53.842Z,5.8
2017-03-06T08:24:21.363Z,6
2017-03-06T08:34:34.812Z,6.1
2017-03-06T08:44:48.637Z,6.2
2017-03-06T08:55:03.911Z,6.6
2017-03-06T09:05:16.696Z,6.4
2017-03-06T09:15:31.740Z,6.7
2017-03-06T09:25:44.863Z,7
2017-03-06T09:35:58.775Z,7.2
2017-03-06T09:46:12.478Z,7.4
2017-03-06T09:56:26.953Z,7.4
2017-03-06T10:06:41.683Z,7.5
2017-03-06T10:16:56.650Z,7.4
2017-03-06T10:27:11.565Z,7.4
2017-03-06T10:37:26.268Z,7.1
2017-03-06T10:47:41.220Z,7.1
2017-03-06T10:57:54.496Z,7.1
2017-03-06T11:08:08.872Z,7.5
2017-03-06T11:18:23.697Z,7.7
2017-03-06T11:28:37.984Z,8.4
2017-03-06T11:38:50.795Z,8.7
2017-03-06T11:49:05.071Z,8.7
2017-03-06T11:59:18.753Z,8.3
2017-03-06T12:09:32.658Z,7.9
2017-03-06T12:19:45.869Z,8.1
2017-03-06T12:30:00.044Z,8.6
2017-03-06T12:40:14.144Z,8.2
2017-03-06T12:50:27.717Z,8.1
2017-03-06T13:00:41.465Z,7.7
2017-03-06T13:10:56.501Z,7.6
2017-03-06T13:21:11.122Z,7.5
2017-03-06T13:31:26.157Z,7.4
2017-03-06T13:41:40.603Z,7.4
2017-03-06T13:51:54.359Z,7.5
2017-03-06T14:02:08.418Z,7.8
2017-03-06T14:12:22.508Z,7.7
2017-03-06T14:22:36.356Z,7.9
2017-03-06T14:32:49.607Z,7.8
2017-03-06T14:43:04.684Z,7.7
2017-03-06T14:53:19.256Z,7.8
2017-03-06T15:03:33.201Z,7.6
2017-03-06T15:13:47.102Z,7.4
2017-03-06T15:24:00.498Z,7.4
2017-03-06T15:34:14.013Z,7.4
2017-03-06T15:44:27.371Z,7.5
2017-03-06T15:54:41.729Z,7.5
2017-03-06T16:04:55.039Z,7.5
2017-03-06T16:15:09.880Z,7.6
2017-03-06T16:25:24.317Z,7.2
2017-03-06T16:35:37.449Z,6.9
2017-03-06T16:45:52.445Z,6.6
2017-03-06T16:56:06.907Z,6
2017-03-06T17:06:20.375Z,5.8
2017-03-06T17:16:33.852Z,5.7
2017-03-06T17:26:47.655Z,5
2017-03-06T17:37:00.950Z,5.1
2017-03-06T17:47:15.823Z,5.1
2017-03-06T17:57:29.015Z,5.2
2017-03-06T18:07:42.939Z,5.2
2017-03-06T18:17:56.551Z,5.4
2017-03-06T18:28:10.794Z,5.6
2017-03-06T18:38:23.742Z,5.5
2017-03-06T18:48:38.802Z,5.6
2017-03-06T18:58:51.796Z,5.5
2017-03-06T19:09:06.605Z,5.5
2017-03-06T19:19:20.170Z,5.3
2017-03-06T19:29:34.308Z,5.3
2017-03-06T19:39:47.648Z,5.1
2017-03-06T19:50:02.312Z,5.1
2017-03-06T20:00:15.645Z,4.9
2017-03-06T20:10:30.839Z,5
2017-03-06T20:20:45.252Z,5
2017-03-06T20:30:58.874Z,4.9
2017-03-06T20:41:13.082Z,5.2
2017-03-06T20:51:26.673Z,5.4
2017-03-06T21:01:41.005Z,5.3
2017-03-06T21:11:55.709Z,5.3
2017-03-06T21:22:09.454Z,5.2
2017-03-06T21:32:24.312Z,5.3
2017-03-06T21:42:39.209Z,5.2
2017-03-06T21:52:52.811Z,5.3
2017-03-06T22:03:06.959Z,5.2
2017-03-06T22:13:20.899Z,5.2
2017-03-06T22:23:35.040Z,5.2
2017-03-06T22:33:49.306Z,5.2
2017-03-06T22:44:02.392Z,5.3
2017-03-06T22:54:16.987Z,5.5
2017-03-06T23:04:31.601Z,5.5
2017-03-06T23:14:45.758Z,5.5
2017-03-06T23:24:59.960Z,5.5
2017-03-06T23:35:14.899Z,5.3
2017-03-06T23:45:28.875Z,5.4
2017-03-06T23:55:41.650Z,5
